Swords, Ireland
Current Conditions -  °F | °C
As of 9:30 PM on Thursday 23 Oct 2014 (Local Time) from EIDW Reporting Station
Broken Clouds Broken Clouds  
Wind Chill: 12°   Ceiling: 3300
Heat Index: 12°   Visibility: 6mi
Dew Point: 10°   Wind: 17mph
Humidity: 88%   Direction: 260°W
Pressure: 29.85"   Gusts: NA
Location:  53.45°N, 6.22°W
Report Text: EIDW 232130Z 26015KT 9999 FEW010 SCT028 BKN033 12/10 Q1011 NOSIG
Loading
Personal Weather Stations






























Interactive Weather Map
Tropical Storm Tracking
New forecast layout! Learn more

10-Day Weather Forecast

Advertisements
Track Severe Weather on mobile